Maldives Meteorological Service

METAR

Station
VRMM
METAR VRMM 191300Z 26010KT 9999 SCT018 FEW019CB BKN280 29/25 Q1011 CB N,S NOSIG=
VRMH
METAR VRMH 191300Z 26007KT 9999 FEW018TCU BKN270 29/26 Q1011=
VRMK
METAR VRMK 191300Z 24006KT 9999 FEW018TCU BKN260 28/25 Q1011=
VRMT
METAR VRMT 191300Z 23005KT 9999 FEW018 FEW019CB SCT120 BKN270 28/25 Q1011 CB NNW=
VRMG
METAR VRMG 191300Z 24003KT 9999 FEW017TCU BKN110 29/25 Q1011 TEMPO 6000 -SHRA=
Last Updated : 2017-09-19 18:00:11

SPECI

Station
VRMM
VRMH
VRMK
VRMT
VRMG
Last Updated : 2017-09-19 18:00:11